createdAt,value
2019-03-08T00:01:47.984Z,79.66
2019-03-08T00:02:47.990Z,79.66
2019-03-08T00:04:40.899Z,80.33
2019-03-08T00:05:40.900Z,80.33
2019-03-08T00:07:33.810Z,81.43
2019-03-08T00:08:33.814Z,81.62
2019-03-08T00:10:27.214Z,82.19
2019-03-08T00:11:27.219Z,82.28
2019-03-08T00:13:20.123Z,82.48
2019-03-08T00:14:20.139Z,82.09
2019-03-08T00:16:13.046Z,82.09
2019-03-08T00:17:13.050Z,82.19
2019-03-08T00:19:05.954Z,82.19
2019-03-08T00:20:05.961Z,82.48
2019-03-08T00:21:58.870Z,82.76
2019-03-08T00:22:58.874Z,82.86
2019-03-08T00:24:51.778Z,83.62
2019-03-08T00:25:51.785Z,83.42
2019-03-08T00:27:44.692Z,82.86
2019-03-08T00:28:44.695Z,82.95
2019-03-08T00:30:37.599Z,83.14
2019-03-08T00:31:37.612Z,83.23
2019-03-08T00:33:30.503Z,83.14
2019-03-08T00:34:30.514Z,83.62
2019-03-08T00:36:23.418Z,83.23
2019-03-08T00:37:23.426Z,83.33
2019-03-08T00:39:16.328Z,83.81
2019-03-08T00:40:16.336Z,83.52
2019-03-08T00:42:09.243Z,83.33
2019-03-08T00:43:09.250Z,83.62
2019-03-08T00:45:02.140Z,83.71
2019-03-08T00:46:02.160Z,83.42
2019-03-08T00:47:55.065Z,84.00
2019-03-08T00:48:55.073Z,83.42
2019-03-08T00:50:47.981Z,84.00
2019-03-08T00:51:47.983Z,83.81
2019-03-08T00:53:40.881Z,83.81
2019-03-08T00:54:40.894Z,83.62
2019-03-08T00:56:44.882Z,84.00
2019-03-08T00:57:44.886Z,83.71
2019-03-08T00:59:37.788Z,83.52
2019-03-08T01:00:37.799Z,83.42
2019-03-08T01:02:30.704Z,83.52
2019-03-08T01:03:30.708Z,83.71
2019-03-08T01:05:23.634Z,84.56
2019-03-08T01:06:23.620Z,84.95
2019-03-08T01:08:16.520Z,85.33
2019-03-08T01:09:16.532Z,85.33
2019-03-08T01:11:09.438Z,86.09
2019-03-08T01:12:09.442Z,86.28
2019-03-08T01:14:02.341Z,87.04
2019-03-08T01:15:02.355Z,87.04
2019-03-08T01:16:55.262Z,88.18
2019-03-08T01:17:55.262Z,88.28
2019-03-08T01:19:48.165Z,88.56
2019-03-08T01:20:48.178Z,88.75
2019-03-08T01:22:41.082Z,89.51
2019-03-08T01:23:41.088Z,89.80
2019-03-08T01:25:33.997Z,90.28
2019-03-08T01:26:34.003Z,90.28
2019-03-08T01:28:26.897Z,91.13
2019-03-08T01:29:26.910Z,91.32
2019-03-08T01:31:19.819Z,92.08
2019-03-08T01:32:19.820Z,91.99
2019-03-08T01:34:12.721Z,92.27
2019-03-08T01:35:12.732Z,92.27
2019-03-08T01:37:05.649Z,92.75
2019-03-08T01:38:05.644Z,92.46
2019-03-08T01:39:58.543Z,92.75
2019-03-08T01:40:58.556Z,92.84
2019-03-08T01:42:51.460Z,93.70
2019-03-08T01:43:51.464Z,93.37
2019-03-08T01:45:44.389Z,93.70
2019-03-08T01:46:44.373Z,93.46
2019-03-08T01:48:37.270Z,93.60
2019-03-08T01:49:37.282Z,93.51
2019-03-08T01:51:30.186Z,93.98
2019-03-08T01:52:30.192Z,93.98
2019-03-08T01:54:23.095Z,94.37
2019-03-08T01:55:23.104Z,94.22
2019-03-08T01:57:16.010Z,94.74
2019-03-08T01:58:16.016Z,94.51
2019-03-08T02:00:10.729Z,94.74
2019-03-08T02:01:08.927Z,94.74
2019-03-08T02:03:01.831Z,95.03
2019-03-08T02:04:01.837Z,94.65
2019-03-08T02:05:54.740Z,95.22
2019-03-08T02:06:54.743Z,95.41
2019-03-08T02:08:47.642Z,96.17
2019-03-08T02:09:47.654Z,96.50
2019-03-08T02:11:40.570Z,97.13
2019-03-08T02:12:42.046Z,97.08
2019-03-08T02:14:33.465Z,97.55
2019-03-08T02:15:33.476Z,98.03
2019-03-08T02:17:26.386Z,99.16
2019-03-08T02:18:26.392Z,98.97
2019-03-08T02:20:19.291Z,99.99
2019-03-08T02:21:19.302Z,99.99
2019-03-08T02:23:12.210Z,99.99
2019-03-08T02:24:12.212Z,99.99
2019-03-08T02:26:05.118Z,99.99
2019-03-08T02:27:05.122Z,99.99
2019-03-08T02:28:58.024Z,99.99
2019-03-08T02:29:58.033Z,99.99
2019-03-08T02:31:50.942Z,99.99
2019-03-08T02:32:50.945Z,99.99
2019-03-08T02:34:43.844Z,99.99
2019-03-08T02:35:43.855Z,99.99
2019-03-08T02:37:36.764Z,99.99
2019-03-08T02:38:36.767Z,99.99
2019-03-08T02:40:29.673Z,99.99
2019-03-08T02:41:29.677Z,99.84
2019-03-08T02:43:22.585Z,99.99
2019-03-08T02:44:22.588Z,99.99
2019-03-08T02:46:15.493Z,99.45
2019-03-08T02:47:15.507Z,98.88
2019-03-08T02:49:08.405Z,98.31
2019-03-08T02:50:08.410Z,98.88
2019-03-08T02:52:01.313Z,98.31
2019-03-08T02:53:01.319Z,98.41
2019-03-08T02:54:54.219Z,98.03
2019-03-08T02:55:54.232Z,97.45
2019-03-08T02:57:47.134Z,97.83
2019-03-08T02:58:47.138Z,97.83
2019-03-08T03:00:40.039Z,97.64
2019-03-08T03:01:40.049Z,97.36
2019-03-08T03:03:32.991Z,97.45
2019-03-08T03:04:32.959Z,97.08
2019-03-08T03:06:25.864Z,96.60
2019-03-08T03:07:25.870Z,96.79
2019-03-08T03:09:18.768Z,96.50
2019-03-08T03:10:18.780Z,97.27
2019-03-08T03:12:11.688Z,97.64
2019-03-08T03:13:11.691Z,97.17
2019-03-08T03:15:04.591Z,97.17
2019-03-08T03:16:04.603Z,96.98
2019-03-08T03:17:57.508Z,96.98
2019-03-08T03:18:57.511Z,96.79
2019-03-08T03:20:50.409Z,97.27
2019-03-08T03:21:50.421Z,97.36
2019-03-08T03:23:43.324Z,97.64
2019-03-08T03:24:43.388Z,97.83
2019-03-08T03:26:36.242Z,96.98
2019-03-08T03:27:36.245Z,97.17
2019-03-08T03:29:29.143Z,96.98
2019-03-08T03:30:29.153Z,97.08
2019-03-08T03:32:22.059Z,96.89
2019-03-08T03:33:22.093Z,96.31
2019-03-08T03:35:14.963Z,95.75
2019-03-08T03:36:14.997Z,96.03
2019-03-08T03:38:07.881Z,96.03
2019-03-08T03:39:07.884Z,96.22
2019-03-08T03:41:00.862Z,96.03
2019-03-08T03:42:00.793Z,96.03
2019-03-08T03:43:53.697Z,96.12
2019-03-08T03:44:53.702Z,96.41
2019-03-08T03:46:46.607Z,96.26
2019-03-08T03:47:46.610Z,96.36
2019-03-08T03:49:39.511Z,95.79
2019-03-08T03:50:39.522Z,95.51
2019-03-08T03:52:32.429Z,95.75
2019-03-08T03:53:32.432Z,95.56
2019-03-08T03:55:25.333Z,95.98
2019-03-08T03:56:25.356Z,95.79
2019-03-08T03:58:18.248Z,95.41
2019-03-08T03:59:18.252Z,95.60
2019-03-08T04:01:11.153Z,95.70
2019-03-08T04:02:11.163Z,94.93
2019-03-08T04:04:04.072Z,94.89
2019-03-08T04:05:04.079Z,94.13
2019-03-08T04:06:56.984Z,94.65
2019-03-08T04:07:56.984Z,95.03
2019-03-08T04:09:49.977Z,93.75
2019-03-08T04:10:49.896Z,93.84
2019-03-08T04:12:42.808Z,94.03
2019-03-08T04:13:42.807Z,93.94
2019-03-08T04:15:35.706Z,93.75
2019-03-08T04:16:35.718Z,93.37
2019-03-08T04:18:28.624Z,92.61
2019-03-08T04:19:28.629Z,91.94
2019-03-08T04:21:21.529Z,92.13
2019-03-08T04:22:21.542Z,91.94
2019-03-08T04:24:14.445Z,91.37
2019-03-08T04:25:14.452Z,91.75
2019-03-08T04:27:07.357Z,91.08
2019-03-08T04:28:07.361Z,91.66
2019-03-08T04:30:00.324Z,90.84
2019-03-08T04:31:00.270Z,90.70
2019-03-08T04:32:53.173Z,90.28
2019-03-08T04:33:53.181Z,90.75
2019-03-08T04:35:46.085Z,90.33
2019-03-08T04:36:46.092Z,89.70
2019-03-08T04:38:38.998Z,89.37
2019-03-08T04:39:39.002Z,89.85
2019-03-08T04:41:31.902Z,89.14
2019-03-08T04:42:31.913Z,89.56
2019-03-08T04:44:24.817Z,90.14
2019-03-08T04:45:24.821Z,90.52
2019-03-08T04:47:17.727Z,91.08
2019-03-08T04:48:17.732Z,90.70
2019-03-08T04:50:10.631Z,90.99
2019-03-08T04:51:10.641Z,91.28
2019-03-08T04:53:03.549Z,90.89
2019-03-08T04:54:03.553Z,90.52
2019-03-08T04:55:56.454Z,91.08
2019-03-08T04:56:56.466Z,90.70
2019-03-08T04:58:49.370Z,90.70
2019-03-08T04:59:49.374Z,90.52
2019-03-08T05:01:42.274Z,90.80
2019-03-08T05:02:42.343Z,91.28
2019-03-08T05:04:35.205Z,91.28
2019-03-08T05:05:35.195Z,90.52
2019-03-08T05:07:28.103Z,91.99
2019-03-08T05:08:28.107Z,91.66
2019-03-08T05:10:21.014Z,91.37
2019-03-08T05:11:21.027Z,91.51
2019-03-08T05:13:13.932Z,90.61
2019-03-08T05:14:13.935Z,90.61
2019-03-08T05:16:06.842Z,90.52
2019-03-08T05:17:06.847Z,90.33
2019-03-08T05:18:59.753Z,90.80
2019-03-08T05:19:59.758Z,90.89
2019-03-08T05:21:52.658Z,90.70
2019-03-08T05:22:52.669Z,91.08
2019-03-08T05:24:45.579Z,90.14
2019-03-08T05:25:45.582Z,90.23
2019-03-08T05:27:38.500Z,89.47
2019-03-08T05:28:38.500Z,89.18
2019-03-08T05:30:31.398Z,90.14
2019-03-08T05:31:31.412Z,90.14
2019-03-08T05:33:24.315Z,90.52
2019-03-08T05:34:24.319Z,90.33
2019-03-08T05:36:17.218Z,90.23
2019-03-08T05:37:17.231Z,90.14
2019-03-08T05:39:10.138Z,89.28
2019-03-08T05:40:10.144Z,89.85
2019-03-08T05:42:03.046Z,90.14
2019-03-08T05:43:04.111Z,89.37
2019-03-08T05:44:55.957Z,89.56
2019-03-08T05:45:55.961Z,89.18
2019-03-08T05:47:48.869Z,88.80
2019-03-08T05:48:48.871Z,89.37
2019-03-08T05:50:41.771Z,89.47
2019-03-08T05:51:41.780Z,88.61
2019-03-08T05:53:34.685Z,89.00
2019-03-08T05:54:34.689Z,89.18
2019-03-08T05:56:27.587Z,89.09
2019-03-08T05:57:27.596Z,88.90
2019-03-08T05:59:20.501Z,89.00
2019-03-08T06:00:20.506Z,89.28
2019-03-08T06:02:13.406Z,89.00
2019-03-08T06:03:13.418Z,88.90
2019-03-08T06:05:06.322Z,88.23
2019-03-08T06:06:06.327Z,88.33
2019-03-08T06:07:59.231Z,89.18
2019-03-08T06:08:59.236Z,88.61
2019-03-08T06:10:52.134Z,89.00
2019-03-08T06:11:52.146Z,88.71
2019-03-08T06:13:45.052Z,89.00
2019-03-08T06:14:45.056Z,89.00
2019-03-08T06:16:37.956Z,88.71
2019-03-08T06:17:37.968Z,89.00
2019-03-08T06:19:30.875Z,88.71
2019-03-08T06:20:30.878Z,88.71
2019-03-08T06:22:23.778Z,88.90
2019-03-08T06:23:23.789Z,89.18
2019-03-08T06:25:16.703Z,89.56
2019-03-08T06:26:16.702Z,89.09
2019-03-08T06:28:09.605Z,89.00
2019-03-08T06:29:09.610Z,89.00
2019-03-08T06:31:02.509Z,89.37
2019-03-08T06:32:02.521Z,89.94
2019-03-08T06:33:55.427Z,89.00
2019-03-08T06:34:55.431Z,89.37
2019-03-08T06:36:48.334Z,89.66
2019-03-08T06:37:48.343Z,89.75
2019-03-08T06:39:41.250Z,89.00
2019-03-08T06:40:41.255Z,89.18
2019-03-08T06:42:34.155Z,89.37
2019-03-08T06:43:34.166Z,88.90
2019-03-08T06:45:27.073Z,88.33
2019-03-08T06:46:27.078Z,88.42
2019-03-08T06:48:19.990Z,88.33
2019-03-08T06:49:19.992Z,88.23
2019-03-08T06:51:12.893Z,88.71
2019-03-08T06:52:12.904Z,88.52
2019-03-08T06:54:05.815Z,88.13
2019-03-08T06:55:05.817Z,88.13
2019-03-08T06:56:58.724Z,87.66
2019-03-08T06:57:58.726Z,87.85
2019-03-08T06:59:51.644Z,88.13
2019-03-08T07:00:51.639Z,87.95
2019-03-08T07:02:44.541Z,88.42
2019-03-08T07:03:44.551Z,88.56
2019-03-08T07:05:37.461Z,87.57
2019-03-08T07:06:37.464Z,87.38
2019-03-08T07:08:30.372Z,87.28
2019-03-08T07:09:30.375Z,87.66
2019-03-08T07:11:23.275Z,87.76
2019-03-08T07:12:23.286Z,87.85
2019-03-08T07:14:16.196Z,86.71
2019-03-08T07:15:16.200Z,87.57
2019-03-08T07:17:09.101Z,87.66
2019-03-08T07:18:12.676Z,87.28
2019-03-08T07:20:02.020Z,88.52
2019-03-08T07:21:02.023Z,88.42
2019-03-08T07:22:54.924Z,87.66
2019-03-08T07:23:54.935Z,88.23
2019-03-08T07:25:51.427Z,88.42
2019-03-08T07:26:47.849Z,87.09
2019-03-08T07:28:40.751Z,86.99
2019-03-08T07:29:40.762Z,87.28
2019-03-08T07:31:33.670Z,87.28
2019-03-08T07:32:33.675Z,87.09
2019-03-08T07:34:26.583Z,87.28
2019-03-08T07:35:26.591Z,87.28
2019-03-08T07:37:19.491Z,87.19
2019-03-08T07:38:19.500Z,87.28
2019-03-08T07:40:12.408Z,86.52
2019-03-08T07:41:12.412Z,86.71
2019-03-08T07:43:05.314Z,86.66
2019-03-08T07:44:05.325Z,86.94
2019-03-08T07:45:58.234Z,86.38
2019-03-08T07:46:58.238Z,86.09
2019-03-08T07:48:51.140Z,85.33
2019-03-08T07:49:51.151Z,84.85
2019-03-08T07:51:44.059Z,85.61
2019-03-08T07:52:44.067Z,85.24
2019-03-08T07:54:36.974Z,85.14
2019-03-08T07:55:36.979Z,84.85
2019-03-08T07:57:29.881Z,84.95
2019-03-08T07:58:29.892Z,85.14
2019-03-08T08:00:22.803Z,84.66
2019-03-08T08:01:22.807Z,84.28
2019-03-08T08:03:15.709Z,83.71
2019-03-08T08:04:15.720Z,83.42
2019-03-08T08:06:08.626Z,83.42
2019-03-08T08:07:08.631Z,84.66
2019-03-08T08:09:01.533Z,83.90
2019-03-08T08:10:01.543Z,83.71
2019-03-08T08:11:54.452Z,83.81
2019-03-08T08:12:54.458Z,84.00
2019-03-08T08:14:47.367Z,84.47
2019-03-08T08:15:47.372Z,84.28
2019-03-08T08:17:40.277Z,84.19
2019-03-08T08:18:40.285Z,83.42
2019-03-08T08:20:33.195Z,83.52
2019-03-08T08:21:33.201Z,83.52
2019-03-08T08:23:34.102Z,83.52
2019-03-08T08:24:26.114Z,84.38
2019-03-08T08:26:19.022Z,84.56
2019-03-08T08:27:19.029Z,85.42
2019-03-08T08:29:11.930Z,85.04
2019-03-08T08:30:11.941Z,85.04
2019-03-08T08:32:04.850Z,83.62
2019-03-08T08:33:04.854Z,83.04
2019-03-08T08:34:57.764Z,82.71
2019-03-08T08:35:57.768Z,83.10
2019-03-08T08:37:50.674Z,83.19
2019-03-08T08:38:50.686Z,84.62
2019-03-08T08:40:43.596Z,85.91
2019-03-08T08:41:43.600Z,88.47
2019-03-08T08:43:36.502Z,90.00
2019-03-08T08:44:36.513Z,91.13
2019-03-08T08:46:29.419Z,91.89
2019-03-08T08:47:29.424Z,92.08
2019-03-08T08:49:22.325Z,91.71
2019-03-08T08:50:22.337Z,91.23
2019-03-08T08:52:15.246Z,90.75
2019-03-08T08:53:15.250Z,91.80
2019-03-08T08:55:08.158Z,92.46
2019-03-08T08:56:08.162Z,91.71
2019-03-08T08:58:01.063Z,91.89
2019-03-08T08:59:01.077Z,92.46
2019-03-08T09:00:53.982Z,92.94
2019-03-08T09:01:53.987Z,93.70
2019-03-08T09:03:46.887Z,93.60
2019-03-08T09:04:46.896Z,94.27
2019-03-08T09:06:39.805Z,94.46
2019-03-08T09:07:39.810Z,94.60
2019-03-08T09:09:32.709Z,94.13
2019-03-08T09:10:32.723Z,94.23
2019-03-08T09:12:25.628Z,95.27
2019-03-08T09:13:25.632Z,95.94
2019-03-08T09:15:18.538Z,91.66
2019-03-08T09:16:18.544Z,92.42
2019-03-08T09:18:11.444Z,94.98
2019-03-08T09:19:11.454Z,95.12
2019-03-08T09:21:04.360Z,94.03
2019-03-08T09:22:04.365Z,94.46
2019-03-08T09:23:57.264Z,94.84
2019-03-08T09:24:57.276Z,94.37
2019-03-08T09:26:50.183Z,94.08
2019-03-08T09:27:50.185Z,94.84
2019-03-08T09:29:43.088Z,94.18
2019-03-08T09:30:43.100Z,94.84
2019-03-08T09:32:36.007Z,94.65
2019-03-08T09:33:36.011Z,96.17
2019-03-08T09:35:28.917Z,96.22
2019-03-08T09:36:28.922Z,95.36
2019-03-08T09:38:21.821Z,94.32
2019-03-08T09:39:21.832Z,92.80
2019-03-08T09:41:14.743Z,92.61
2019-03-08T09:42:14.745Z,92.22
2019-03-08T09:44:07.648Z,93.65
2019-03-08T09:45:07.658Z,93.65
2019-03-08T09:47:00.568Z,92.61
2019-03-08T09:48:00.572Z,92.61
2019-03-08T09:49:53.475Z,92.61
2019-03-08T09:50:53.487Z,91.89
2019-03-08T09:52:46.397Z,90.75
2019-03-08T09:53:46.398Z,90.75
2019-03-08T09:55:39.309Z,88.56
2019-03-08T09:56:39.313Z,88.66
2019-03-08T09:58:32.214Z,88.94
2019-03-08T09:59:32.229Z,87.99
2019-03-08T10:01:25.167Z,88.94
2019-03-08T10:02:25.174Z,87.71
2019-03-08T10:04:18.076Z,88.99
2019-03-08T10:05:18.089Z,88.89
2019-03-08T10:07:10.999Z,88.51
2019-03-08T10:08:11.003Z,87.37
2019-03-08T10:10:03.912Z,85.66
2019-03-08T10:11:03.917Z,84.89
2019-03-08T10:12:56.824Z,86.32
2019-03-08T10:13:56.827Z,87.56
2019-03-08T10:15:49.736Z,85.47
2019-03-08T10:16:49.743Z,84.94
2019-03-08T10:18:42.645Z,83.32
2019-03-08T10:19:42.656Z,83.41
2019-03-08T10:21:35.566Z,84.08
2019-03-08T10:22:35.571Z,83.89
2019-03-08T10:24:28.483Z,82.27
2019-03-08T10:25:28.489Z,82.79
2019-03-08T10:27:21.404Z,79.93
2019-03-08T10:28:21.405Z,80.22
2019-03-08T10:30:14.311Z,79.64
2019-03-08T10:31:14.323Z,79.46
2019-03-08T10:33:07.233Z,77.17
2019-03-08T10:34:07.239Z,77.83
2019-03-08T10:36:00.225Z,78.44
2019-03-08T10:37:00.158Z,77.30
2019-03-08T10:38:53.063Z,76.25
2019-03-08T10:39:53.077Z,76.73
2019-03-08T10:41:45.988Z,76.48
2019-03-08T10:42:45.995Z,75.05
2019-03-08T10:44:38.903Z,75.62
2019-03-08T10:45:38.914Z,74.48
2019-03-08T10:47:31.829Z,73.33
2019-03-08T10:48:31.839Z,74.10
2019-03-08T10:50:24.744Z,73.81
2019-03-08T10:51:24.758Z,72.96
2019-03-08T10:53:17.671Z,69.04
2019-03-08T10:54:17.678Z,69.77
2019-03-08T10:56:10.590Z,70.15
2019-03-08T10:57:10.599Z,69.96
2019-03-08T10:59:03.502Z,71.26
2019-03-08T11:00:03.517Z,72.02
2019-03-08T11:01:56.432Z,72.50
2019-03-08T11:02:56.439Z,72.41
2019-03-08T11:04:49.347Z,70.88
2019-03-08T11:05:49.359Z,71.83
2019-03-08T11:07:42.273Z,71.70
2019-03-08T11:08:42.281Z,71.89
2019-03-08T11:10:35.185Z,73.03
2019-03-08T11:11:35.198Z,73.03
2019-03-08T11:13:28.110Z,73.45
2019-03-08T11:14:28.118Z,73.26
2019-03-08T11:16:21.195Z,73.83
2019-03-08T11:17:21.035Z,74.31
2019-03-08T11:19:13.944Z,74.12
2019-03-08T11:20:13.953Z,73.74
2019-03-08T11:22:06.865Z,73.36
2019-03-08T11:23:06.872Z,74.21
2019-03-08T11:25:07.724Z,71.45
2019-03-08T11:25:59.790Z,71.55
2019-03-08T11:27:52.698Z,71.83
2019-03-08T11:28:52.715Z,73.89
2019-03-08T11:30:53.751Z,77.28
2019-03-08T11:31:45.630Z,79.66
2019-03-08T11:33:38.539Z,82.76
2019-03-08T11:34:38.548Z,83.52
2019-03-08T11:36:31.471Z,86.61
2019-03-08T11:37:31.463Z,86.43
2019-03-08T11:39:24.365Z,86.99
2019-03-08T11:40:24.375Z,87.76
2019-03-08T11:42:17.286Z,86.99
2019-03-08T11:43:17.290Z,87.19
2019-03-08T11:45:10.195Z,85.47
2019-03-08T11:46:10.205Z,84.62
2019-03-08T11:48:03.116Z,84.33
2019-03-08T11:49:03.123Z,84.33
2019-03-08T11:51:07.761Z,83.29
2019-03-08T11:52:07.735Z,82.15
2019-03-08T11:54:01.429Z,82.24
2019-03-08T11:55:01.141Z,81.96
2019-03-08T11:56:56.342Z,83.67
2019-03-08T11:57:54.235Z,83.39
2019-03-08T11:59:46.959Z,82.67
2019-03-08T12:00:46.972Z,81.52
2019-03-08T12:02:39.881Z,81.14
2019-03-08T12:03:39.886Z,80.47
2019-03-08T12:05:32.803Z,78.29
2019-03-08T12:06:34.806Z,78.29
2019-03-08T12:08:25.710Z,78.33
2019-03-08T12:09:25.714Z,78.14
2019-03-08T12:11:18.622Z,77.00
2019-03-08T12:12:18.632Z,76.33
2019-03-08T12:14:13.057Z,76.71
2019-03-08T12:15:14.461Z,76.42
2019-03-08T12:17:06.016Z,76.46
2019-03-08T12:18:05.974Z,75.89
2019-03-08T12:19:58.884Z,75.89
2019-03-08T12:20:58.894Z,75.60
2019-03-08T12:22:52.813Z,75.70
2019-03-08T12:23:52.811Z,75.42
2019-03-08T12:25:45.716Z,77.03
2019-03-08T12:26:45.727Z,77.61
2019-03-08T12:28:38.638Z,77.32
2019-03-08T12:29:38.644Z,77.89
2019-03-08T12:31:31.618Z,78.17
2019-03-08T12:32:31.564Z,78.37
2019-03-08T12:34:24.989Z,77.61
2019-03-08T12:35:24.976Z,76.61
2019-03-08T12:37:17.890Z,76.52
2019-03-08T12:38:17.897Z,78.19
2019-03-08T12:40:10.800Z,81.62
2019-03-08T12:41:10.813Z,83.33
2019-03-08T12:43:08.088Z,83.95
2019-03-08T12:44:03.729Z,85.57
2019-03-08T12:45:56.634Z,86.90
2019-03-08T12:46:56.646Z,87.09
2019-03-08T12:48:50.258Z,87.47
2019-03-08T12:49:49.561Z,87.57
2019-03-08T12:51:42.465Z,85.95
2019-03-08T12:53:55.382Z,84.56
2019-03-08T12:54:55.386Z,83.62
2019-03-08T12:56:48.293Z,83.81
2019-03-08T12:57:48.301Z,83.94
2019-03-08T12:59:41.213Z,82.90
2019-03-08T13:00:41.219Z,81.85
2019-03-08T13:02:34.398Z,81.37
2019-03-08T13:03:34.139Z,79.28
2019-03-08T13:05:27.043Z,79.80
2019-03-08T13:06:27.054Z,79.80
2019-03-08T13:08:19.969Z,80.22
2019-03-08T13:09:19.974Z,79.36
2019-03-08T13:11:12.882Z,75.45
2019-03-08T13:12:12.896Z,74.98
2019-03-08T13:14:05.809Z,76.88
2019-03-08T13:15:05.816Z,75.45
2019-03-08T13:16:58.724Z,74.02
2019-03-08T13:17:58.873Z,74.69
2019-03-08T13:19:51.651Z,73.07
2019-03-08T13:20:51.652Z,71.36
2019-03-08T13:22:44.562Z,73.17
2019-03-08T13:23:44.570Z,72.78
2019-03-08T13:25:37.474Z,70.69
2019-03-08T13:26:37.491Z,70.78
2019-03-08T13:28:30.545Z,70.47
2019-03-08T13:29:30.551Z,70.27
2019-03-08T13:31:23.455Z,70.37
2019-03-08T13:32:23.468Z,69.79
2019-03-08T13:34:16.381Z,71.03
2019-03-08T13:35:16.385Z,71.80
2019-03-08T13:37:09.287Z,72.08
2019-03-08T13:38:09.299Z,71.13
2019-03-08T13:40:02.209Z,71.61
2019-03-08T13:41:02.217Z,71.98
2019-03-08T13:42:55.123Z,72.24
2019-03-08T13:43:55.128Z,73.51
2019-03-08T13:45:48.039Z,74.56
2019-03-08T13:46:48.047Z,74.46
2019-03-08T13:48:40.968Z,73.51
2019-03-08T13:49:40.964Z,73.99
2019-03-08T13:51:33.895Z,74.08
2019-03-08T13:52:33.906Z,74.56
2019-03-08T13:54:26.820Z,74.12
2019-03-08T13:55:26.826Z,72.78
2019-03-08T13:57:19.731Z,72.88
2019-03-08T13:58:19.754Z,71.70
2019-03-08T14:00:12.664Z,71.70
2019-03-08T14:01:12.670Z,71.22
2019-03-08T14:03:05.643Z,71.93
2019-03-08T14:04:05.656Z,72.08
2019-03-08T14:05:58.490Z,72.27
2019-03-08T14:06:58.501Z,72.69
2019-03-08T14:08:51.430Z,72.69
2019-03-08T14:09:51.417Z,72.50
2019-03-08T14:11:44.324Z,73.26
2019-03-08T14:12:44.335Z,72.12
2019-03-08T14:14:37.247Z,70.50
2019-03-08T14:15:37.257Z,70.50
2019-03-08T14:17:30.158Z,70.44
2019-03-08T14:18:30.173Z,69.64
2019-03-08T14:20:23.083Z,68.88
2019-03-08T14:21:23.091Z,69.17
2019-03-08T14:23:16.008Z,68.21
2019-03-08T14:24:16.012Z,68.59
2019-03-08T14:26:08.915Z,69.35
2019-03-08T14:27:08.928Z,69.26
2019-03-08T14:29:01.838Z,70.47
2019-03-08T14:30:01.841Z,70.75
2019-03-08T14:31:54.747Z,74.18
2019-03-08T14:32:57.946Z,75.89
2019-03-08T14:34:49.501Z,77.76
2019-03-08T14:35:47.675Z,78.71
2019-03-08T14:37:40.572Z,80.61
2019-03-08T14:38:40.587Z,80.33
2019-03-08T14:40:33.495Z,82.04
2019-03-08T14:41:33.502Z,82.23
2019-03-08T14:43:26.410Z,80.99
2019-03-08T14:44:29.758Z,81.09
2019-03-08T14:46:21.044Z,80.08
2019-03-08T14:47:19.331Z,79.60
2019-03-08T14:49:12.240Z,80.55
2019-03-08T14:50:12.260Z,80.46
2019-03-08T14:52:05.147Z,77.80
2019-03-08T14:53:05.159Z,77.89
2019-03-08T14:55:00.003Z,78.85
2019-03-08T14:55:59.148Z,79.27
2019-03-08T14:57:50.974Z,79.17
2019-03-08T14:58:50.987Z,78.69
2019-03-08T15:00:43.897Z,77.45
2019-03-08T15:01:43.904Z,76.98
2019-03-08T15:03:43.141Z,76.40
2019-03-08T15:04:36.817Z,76.12
2019-03-08T15:06:29.733Z,76.88
2019-03-08T15:07:29.736Z,76.59
2019-03-08T15:09:22.645Z,76.31
2019-03-08T15:10:22.651Z,76.40
2019-03-08T15:12:16.789Z,75.36
2019-03-08T15:13:15.567Z,75.16
2019-03-08T15:15:11.365Z,75.70
2019-03-08T15:16:08.486Z,76.12
2019-03-08T15:18:01.391Z,75.45
2019-03-08T15:19:03.735Z,74.75
2019-03-08T15:20:54.890Z,75.84
2019-03-08T15:21:54.422Z,75.13
2019-03-08T15:23:47.219Z,75.07
2019-03-08T15:24:47.232Z,75.45
2019-03-08T15:26:40.149Z,75.07
2019-03-08T15:27:40.148Z,75.45
2019-03-08T15:29:33.058Z,75.36
2019-03-08T15:30:33.062Z,75.36
2019-03-08T15:32:25.975Z,74.98
2019-03-08T15:33:25.978Z,75.16
2019-03-08T15:35:18.890Z,74.44
2019-03-08T15:36:18.899Z,74.31
2019-03-08T15:38:11.790Z,74.25
2019-03-08T15:39:11.812Z,73.74
2019-03-08T15:41:04.721Z,73.74
2019-03-08T15:42:04.724Z,74.06
2019-03-08T15:43:57.626Z,73.77
2019-03-08T15:44:57.662Z,73.30
2019-03-08T15:46:50.550Z,72.60
2019-03-08T15:47:50.557Z,72.88
2019-03-08T15:49:43.469Z,72.50
2019-03-08T15:50:46.808Z,72.50
2019-03-08T15:52:36.376Z,72.88
2019-03-08T15:53:36.387Z,72.69
2019-03-08T15:55:29.296Z,72.60
2019-03-08T15:56:29.303Z,73.26
2019-03-08T15:58:22.212Z,73.45
2019-03-08T15:59:22.264Z,73.80
2019-03-08T16:01:15.127Z,74.12
2019-03-08T16:02:15.132Z,74.21
2019-03-08T16:04:12.048Z,74.56
2019-03-08T16:05:08.164Z,73.89
2019-03-08T16:07:01.037Z,74.56
2019-03-08T16:08:01.817Z,74.27
2019-03-08T16:09:53.947Z,74.56
2019-03-08T16:10:53.985Z,75.04
2019-03-08T16:12:46.860Z,75.13
2019-03-08T16:13:46.865Z,75.23
2019-03-08T16:15:39.777Z,75.60
2019-03-08T16:16:39.776Z,75.51
2019-03-08T16:18:32.679Z,75.99
2019-03-08T16:19:32.716Z,75.70
2019-03-08T16:21:25.605Z,76.46
2019-03-08T16:22:28.630Z,76.65
2019-03-08T16:24:18.505Z,76.27
2019-03-08T16:25:18.517Z,77.00
2019-03-08T16:27:11.426Z,76.81
2019-03-08T16:28:11.431Z,76.84
2019-03-08T16:30:09.654Z,76.65
2019-03-08T16:31:04.347Z,77.22
2019-03-08T16:32:57.245Z,77.22
2019-03-08T16:33:57.256Z,77.03
2019-03-08T16:35:50.165Z,77.32
2019-03-08T16:36:50.169Z,77.03
2019-03-08T16:38:43.074Z,77.03
2019-03-08T16:39:43.088Z,77.03
2019-03-08T16:41:35.993Z,76.65
2019-03-08T16:42:35.996Z,76.84
2019-03-08T16:44:28.901Z,76.84
2019-03-08T16:45:28.911Z,76.94
2019-03-08T16:47:21.820Z,77.13
2019-03-08T16:48:21.829Z,76.94
2019-03-08T16:50:14.748Z,77.13
2019-03-08T16:51:14.738Z,77.09
2019-03-08T16:53:07.639Z,77.95
2019-03-08T16:54:07.654Z,77.76
2019-03-08T16:56:00.561Z,77.76
2019-03-08T16:57:00.566Z,77.85
2019-03-08T16:58:53.465Z,77.76
2019-03-08T16:59:53.477Z,77.76
2019-03-08T17:01:46.387Z,77.76
2019-03-08T17:02:46.395Z,78.23
2019-03-08T17:04:39.330Z,77.66
2019-03-08T17:05:39.306Z,77.66
2019-03-08T17:07:32.215Z,77.85
2019-03-08T17:08:32.218Z,78.23
2019-03-08T17:10:25.125Z,78.14
2019-03-08T17:11:25.131Z,78.14
2019-03-08T17:13:19.518Z,78.33
2019-03-08T17:14:18.047Z,78.33
2019-03-08T17:16:10.955Z,78.52
2019-03-08T17:17:10.958Z,78.52
2019-03-08T17:19:11.687Z,78.23
2019-03-08T17:20:03.868Z,78.90
2019-03-08T17:21:56.790Z,78.61
2019-03-08T17:22:56.775Z,78.80
2019-03-08T17:24:49.685Z,78.61
2019-03-08T17:25:49.697Z,78.99
2019-03-08T17:27:42.605Z,79.09
2019-03-08T17:28:42.612Z,79.19
2019-03-08T17:30:35.518Z,79.75
2019-03-08T17:31:35.523Z,79.38
2019-03-08T17:33:28.425Z,79.28
2019-03-08T17:34:28.430Z,79.38
2019-03-08T17:36:21.345Z,79.28
2019-03-08T17:37:21.347Z,79.66
2019-03-08T17:39:14.250Z,79.19
2019-03-08T17:40:14.261Z,79.57
2019-03-08T17:42:07.169Z,78.71
2019-03-08T17:43:07.170Z,79.47
2019-03-08T17:45:00.107Z,78.99
2019-03-08T17:46:00.075Z,78.99
2019-03-08T17:47:52.991Z,78.99
2019-03-08T17:48:52.996Z,79.19
2019-03-08T17:50:45.905Z,78.99
2019-03-08T17:51:45.908Z,78.90
2019-03-08T17:53:38.846Z,79.09
2019-03-08T17:54:38.822Z,78.52
2019-03-08T17:56:31.728Z,78.90
2019-03-08T17:57:31.733Z,78.61
2019-03-08T17:59:24.670Z,78.23
2019-03-08T18:00:24.676Z,78.23
2019-03-08T18:02:17.585Z,78.42
2019-03-08T18:03:17.591Z,77.76
2019-03-08T18:05:10.602Z,77.76
2019-03-08T18:06:10.561Z,77.85
2019-03-08T18:08:03.420Z,77.66
2019-03-08T18:09:03.425Z,77.47
2019-03-08T18:10:56.378Z,77.47
2019-03-08T18:11:56.344Z,77.28
2019-03-08T18:13:49.245Z,77.85
2019-03-08T18:14:49.257Z,77.47
2019-03-08T18:16:42.169Z,77.37
2019-03-08T18:17:42.174Z,77.09
2019-03-08T18:19:35.075Z,77.09
2019-03-08T18:20:35.086Z,77.09
2019-03-08T18:22:28.029Z,77.00
2019-03-08T18:23:27.997Z,76.90
2019-03-08T18:25:20.910Z,76.90
2019-03-08T18:26:20.920Z,76.81
2019-03-08T18:28:13.829Z,77.03
2019-03-08T18:29:13.843Z,76.81
2019-03-08T18:31:06.742Z,76.94
2019-03-08T18:32:06.744Z,77.03
2019-03-08T18:33:59.648Z,76.94
2019-03-08T18:34:59.663Z,76.84